Time;durP1;ratioP1;P1;durP2;ratioP2;P2;SDS_P1;SDS_P2;PMS_P1;PMS_P2;Temp;Humidity;BMP_temperature;BMP_pressure;BME280_temperature;BME280_humidity;BME280_pressure;Samples;Min_cycle;Max_cycle;Signal;HPM_P1;HPM_P2
2023/08/22 00:00:31;;;;;;;17.95;8.35;;;17.60;78.10;;;;;;4960195;28;20027;-79
2023/08/22 00:02:58;;;;;;;19.42;7.50;;;17.60;78.20;;;;;;4960537;29;20106;-79
2023/08/22 00:05:24;;;;;;;13.80;7.57;;;17.60;78.50;;;;;;4943317;29;20030;-81
2023/08/22 00:07:51;;;;;;;14.67;7.57;;;17.60;78.50;;;;;;4942631;29;20039;-80
2023/08/22 00:10:17;;;;;;;22.85;8.32;;;17.50;78.80;;;;;;4942729;28;20027;-79
2023/08/22 00:12:44;;;;;;;16.95;7.28;;;17.50;79.00;;;;;;4942620;29;20077;-80
2023/08/22 00:15:12;;;;;;;19.70;7.35;;;17.50;79.00;;;;;;4958923;28;20075;-80
2023/08/22 00:17:39;;;;;;;20.38;7.50;;;17.40;79.50;;;;;;4957829;28;20079;-79
2023/08/22 00:20:08;;;;;;;16.58;9.00;;;17.40;79.70;;;;;;4959987;29;20031;-80
2023/08/22 00:22:34;;;;;;;17.85;7.65;;;17.40;79.60;;;;;;4960425;29;20354;-80
2023/08/22 00:25:00;;;;;;;22.10;7.82;;;17.30;79.80;;;;;;4953782;29;20019;-79
2023/08/22 00:27:26;;;;;;;19.13;7.68;;;17.30;80.30;;;;;;4962371;28;20045;-79
2023/08/22 00:29:52;;;;;;;15.77;7.40;;;17.30;80.50;;;;;;4959860;28;20499;-81
2023/08/22 00:32:18;;;;;;;12.73;7.53;;;17.30;80.20;;;;;;4959601;29;20015;-79
2023/08/22 00:34:44;;;;;;;15.23;6.82;;;17.30;80.40;;;;;;4955425;28;20447;-79
2023/08/22 00:37:09;;;;;;;15.32;7.07;;;17.30;80.20;;;;;;4956038;29;20023;-81
2023/08/22 00:39:35;;;;;;;16.10;7.68;;;17.30;80.30;;;;;;4956742;29;20035;-80
2023/08/22 00:42:01;;;;;;;23.83;7.57;;;17.30;80.20;;;;;;4956446;29;20086;-80
2023/08/22 00:44:27;;;;;;;17.88;7.82;;;17.40;79.60;;;;;;4956428;29;20026;-80
2023/08/22 00:46:53;;;;;;;18.30;6.63;;;17.40;80.20;;;;;;4956221;29;20464;-79
2023/08/22 00:49:20;;;;;;;16.88;6.30;;;17.40;80.00;;;;;;4938901;29;20050;-79
2023/08/22 00:51:46;;;;;;;14.70;6.53;;;17.50;80.20;;;;;;4956522;29;20031;-79
2023/08/22 00:54:13;;;;;;;14.25;6.35;;;17.50;80.30;;;;;;4956288;29;20026;-79
2023/08/22 00:56:40;;;;;;;20.10;7.18;;;17.50;78.40;;;;;;4956734;29;20034;-80
2023/08/22 00:59:07;;;;;;;13.30;5.93;;;17.50;78.50;;;;;;4939250;29;20393;-79
2023/08/22 01:01:33;;;;;;;13.70;7.07;;;17.50;78.60;;;;;;4939458;29;20535;-81
2023/08/22 01:03:59;;;;;;;10.80;6.18;;;17.50;78.80;;;;;;4961816;29;20086;-80
2023/08/22 01:06:39;;;;;;;12.25;7.05;;;17.50;78.90;;;;;;4967096;29;20051;-79
2023/08/22 01:09:18;;;;;;;14.60;7.53;;;17.50;79.00;;;;;;4962364;29;20032;-79
2023/08/22 01:11:52;;;;;;;13.98;7.45;;;17.40;79.20;;;;;;4945204;29;20102;-80
2023/08/22 01:14:20;;;;;;;10.65;6.75;;;17.40;79.60;;;;;;4958034;29;20020;-81
2023/08/22 01:16:48;;;;;;;16.17;7.07;;;17.30;79.90;;;;;;4950530;29;20027;-80
2023/08/22 01:19:17;;;;;;;15.65;6.88;;;17.30;79.90;;;;;;4956911;29;20579;-79
2023/08/22 01:21:52;;;;;;;14.02;7.22;;;17.30;79.70;;;;;;4956005;29;20039;-80
2023/08/22 01:24:19;;;;;;;13.35;6.88;;;17.20;79.50;;;;;;4956226;29;20038;-79
2023/08/22 01:26:46;;;;;;;12.70;7.97;;;17.20;80.00;;;;;;4956033;29;20029;-80
2023/08/22 01:29:24;;;;;;;14.70;7.05;;;17.10;79.40;;;;;;4938831;29;20026;-79
2023/08/22 01:32:12;;;;;;;17.10;7.50;;;17.10;80.20;;;;;;4955930;29;20033;-79
2023/08/22 01:34:39;;;;;;;13.68;7.78;;;17.10;80.80;;;;;;4958545;28;20112;-79
2023/08/22 01:37:07;;;;;;;11.30;7.63;;;16.90;81.10;;;;;;4948901;29;20404;-79
2023/08/22 01:39:34;;;;;;;10.48;7.13;;;16.90;81.60;;;;;;4965425;29;20015;-79
2023/08/22 01:42:00;;;;;;;11.48;7.13;;;16.90;81.80;;;;;;4941769;29;20484;-80
2023/08/22 01:44:28;;;;;;;12.68;6.80;;;16.90;81.30;;;;;;4955543;28;20500;-79
2023/08/22 01:46:54;;;;;;;12.50;7.60;;;16.90;82.10;;;;;;4955210;29;20039;-80
2023/08/22 01:49:20;;;;;;;14.57;7.47;;;16.80;82.10;;;;;;4955467;29;20030;-79
2023/08/22 01:51:46;;;;;;;10.43;6.53;;;16.80;82.50;;;;;;4955242;29;20031;-79
2023/08/22 01:54:12;;;;;;;15.07;7.50;;;16.80;82.00;;;;;;4938388;29;20126;-80
2023/08/22 01:56:38;;;;;;;13.88;7.40;;;16.80;82.10;;;;;;4955453;29;20027;-81
2023/08/22 01:59:04;;;;;;;17.50;7.30;;;16.70;82.20;;;;;;4922015;29;20118;-79
2023/08/22 02:01:30;;;;;;;17.38;7.55;;;16.70;82.30;;;;;;4955300;29;20038;-80
2023/08/22 02:04:01;;;;;;;11.95;7.72;;;16.70;82.70;;;;;;4955130;29;20035;-81
2023/08/22 02:06:27;;;;;;;15.93;9.63;;;16.70;82.60;;;;;;4955306;29;20023;-80
2023/08/22 02:08:53;;;;;;;13.95;6.68;;;16.60;82.90;;;;;;4937923;29;20046;-81
2023/08/22 02:11:19;;;;;;;20.23;8.48;;;16.60;83.20;;;;;;4955259;29;20027;-80
2023/08/22 02:13:44;;;;;;;16.30;8.45;;;16.60;83.30;;;;;;4954200;29;20465;-79
2023/08/22 02:16:10;;;;;;;17.10;8.35;;;16.60;83.60;;;;;;4954492;29;20051;-80
2023/08/22 02:18:36;;;;;;;16.77;8.35;;;16.60;83.30;;;;;;4937584;29;20031;-81
2023/08/22 02:21:02;;;;;;;14.70;7.50;;;16.70;83.90;;;;;;4937331;29;20023;-80
2023/08/22 02:23:28;;;;;;;21.95;8.45;;;16.70;83.90;;;;;;4954691;29;20519;-80
2023/08/22 02:25:54;;;;;;;14.32;7.78;;;16.70;84.10;;;;;;4954704;29;20043;-81
2023/08/22 02:28:19;;;;;;;19.58;8.27;;;16.70;83.80;;;;;;4953802;29;20062;-81
2023/08/22 02:30:45;;;;;;;17.50;8.13;;;16.60;83.60;;;;;;4937404;29;20031;-80
2023/08/22 02:33:11;;;;;;;13.32;7.18;;;16.60;84.30;;;;;;4954553;29;20031;-80
2023/08/22 02:35:37;;;;;;;15.45;8.38;;;16.50;84.40;;;;;;4954655;29;20043;-79
2023/08/22 02:38:03;;;;;;;17.80;9.23;;;16.50;85.00;;;;;;4954690;29;20032;-79
2023/08/22 02:40:29;;;;;;;17.67;8.50;;;16.50;85.40;;;;;;4954614;29;20028;-80
2023/08/22 02:42:55;;;;;;;17.83;9.13;;;16.50;85.00;;;;;;4954620;29;20068;-81
2023/08/22 02:45:20;;;;;;;13.57;7.65;;;16.50;85.00;;;;;;4958121;29;20027;-81
2023/08/22 02:47:46;;;;;;;17.48;8.15;;;16.50;85.30;;;;;;4938299;29;20035;-80
2023/08/22 02:50:12;;;;;;;16.95;8.80;;;16.50;84.80;;;;;;4954407;29;20390;-81
2023/08/22 02:52:38;;;;;;;19.35;8.93;;;16.60;85.30;;;;;;4954442;29;20023;-80
2023/08/22 02:55:04;;;;;;;15.65;8.38;;;16.60;83.90;;;;;;4954635;29;20070;-80
2023/08/22 02:57:30;;;;;;;18.55;9.68;;;16.70;82.80;;;;;;4936747;29;20106;-80
2023/08/22 02:59:56;;;;;;;20.42;8.25;;;16.80;82.00;;;;;;4954429;29;20127;-80
2023/08/22 03:02:21;;;;;;;18.38;9.35;;;16.90;81.90;;;;;;4954200;29;20019;-81
2023/08/22 03:04:47;;;;;;;21.58;9.93;;;16.90;82.00;;;;;;4954394;29;20027;-79
2023/08/22 03:07:13;;;;;;;17.33;9.93;;;16.90;81.30;;;;;;4954397;29;20090;-81
2023/08/22 03:09:40;;;;;;;16.80;9.40;;;17.00;81.10;;;;;;4954230;29;20034;-79
2023/08/22 03:12:06;;;;;;;17.77;9.17;;;17.00;81.40;;;;;;4954467;29;20054;-78
2023/08/22 03:14:31;;;;;;;24.42;9.48;;;17.10;81.20;;;;;;4941489;29;20106;-79
2023/08/22 03:16:57;;;;;;;15.75;9.27;;;17.20;81.50;;;;;;4954174;29;20081;-80
2023/08/22 03:19:23;;;;;;;19.40;9.32;;;17.20;82.30;;;;;;4954512;29;20092;-80
2023/08/22 03:21:49;;;;;;;18.70;9.23;;;17.20;82.70;;;;;;4954121;29;20373;-78
2023/08/22 03:24:14;;;;;;;16.70;10.48;;;17.20;81.90;;;;;;4954511;29;20015;-79
2023/08/22 03:26:40;;;;;;;18.77;10.25;;;17.20;81.60;;;;;;4955531;29;20035;-79
2023/08/22 03:29:06;;;;;;;20.77;9.38;;;17.20;81.30;;;;;;4956484;29;20115;-79
2023/08/22 03:31:32;;;;;;;16.77;9.30;;;17.30;81.80;;;;;;4958019;29;20024;-80
2023/08/22 03:33:59;;;;;;;16.15;9.35;;;17.30;81.60;;;;;;4960172;29;20042;-79
2023/08/22 03:36:25;;;;;;;21.42;10.15;;;17.40;81.50;;;;;;4961107;29;20047;-79
2023/08/22 03:38:51;;;;;;;23.73;10.82;;;17.50;80.80;;;;;;4958765;29;20036;-79
2023/08/22 03:41:20;;;;;;;23.55;10.45;;;17.50;80.50;;;;;;4955090;29;20027;-80
2023/08/22 03:43:46;;;;;;;17.25;9.38;;;17.50;80.10;;;;;;4952208;29;20374;-79
2023/08/22 03:46:11;;;;;;;18.35;10.18;;;17.50;80.50;;;;;;4954194;29;20034;-78
2023/08/22 03:48:37;;;;;;;19.80;9.63;;;17.50;80.50;;;;;;4953600;29;20035;-79
2023/08/22 03:51:07;;;;;;;17.67;9.65;;;17.40;80.50;;;;;;4953787;29;20023;-80
2023/08/22 03:53:34;;;;;;;20.08;10.85;;;17.50;80.60;;;;;;4954782;29;20023;-80
2023/08/22 03:56:00;;;;;;;;;;;17.50;80.50;;;;;;4942408;29;20026;-80
2023/08/22 03:58:25;;;;;;;18.40;9.98;;;17.60;80.30;;;;;;4942242;29;19910;-80
2023/08/22 04:00:54;;;;;;;20.67;11.15;;;17.60;80.80;;;;;;4956137;29;20031;-80
2023/08/22 04:03:20;;;;;;;27.92;16.27;;;17.70;80.20;;;;;;4954263;29;20425;-80
2023/08/22 04:05:46;;;;;;;20.08;10.40;;;17.90;80.70;;;;;;4953968;29;20035;-79
2023/08/22 04:08:12;;;;;;;21.00;11.15;;;17.90;80.20;;;;;;4936651;29;20134;-80
2023/08/22 04:10:37;;;;;;;21.80;9.73;;;18.10;80.00;;;;;;4940198;29;20090;-80
2023/08/22 04:13:03;;;;;;;16.50;9.93;;;18.20;80.70;;;;;;4947543;29;20031;-80
2023/08/22 04:15:29;;;;;;;16.15;10.32;;;18.40;79.90;;;;;;4958092;29;20031;-80
2023/08/22 04:17:55;;;;;;;22.42;10.43;;;18.60;78.60;;;;;;4940874;29;20027;-80
2023/08/22 04:20:21;;;;;;;23.83;11.18;;;18.80;78.60;;;;;;4959662;29;20027;-80
2023/08/22 04:22:46;;;;;;;15.57;10.10;;;19.10;77.70;;;;;;4969768;29;20027;-80
2023/08/22 04:25:12;;;;;;;17.30;9.98;;;19.40;76.90;;;;;;4964613;29;20015;-80
2023/08/22 04:27:38;;;;;;;16.95;10.35;;;19.50;76.30;;;;;;4940181;29;20065;-79
2023/08/22 04:30:05;;;;;;;19.05;10.45;;;19.70;76.10;;;;;;4956948;29;20027;-82
2023/08/22 04:32:31;;;;;;;20.88;9.88;;;19.90;75.80;;;;;;4956931;29;20049;-80
2023/08/22 04:34:57;;;;;;;25.70;12.23;;;20.00;74.70;;;;;;4956815;29;20119;-81
2023/08/22 04:37:24;;;;;;;24.02;13.75;;;20.10;74.30;;;;;;4956944;29;20433;-80
2023/08/22 04:39:50;;;;;;;19.67;10.68;;;20.10;74.50;;;;;;4956848;29;20023;-79
2023/08/22 04:42:16;;;;;;;29.05;14.48;;;20.30;74.00;;;;;;4957328;29;20545;-81
2023/08/22 04:44:41;;;;;;;22.55;12.80;;;20.50;74.60;;;;;;4956833;29;20027;-82
2023/08/22 04:47:07;;;;;;;23.45;11.20;;;20.80;73.40;;;;;;4956392;29;20035;-81
2023/08/22 04:49:33;;;;;;;17.63;10.73;;;21.10;72.40;;;;;;4956721;29;20020;-82
2023/08/22 04:51:59;;;;;;;20.48;10.25;;;21.40;71.50;;;;;;4957086;29;20035;-80
2023/08/22 04:54:25;;;;;;;20.75;10.55;;;22.00;70.30;;;;;;4956664;29;20516;-80
2023/08/22 04:56:51;;;;;;;24.35;11.55;;;22.70;68.00;;;;;;4956454;29;20031;-83
2023/08/22 04:59:16;;;;;;;25.27;11.52;;;23.30;66.10;;;;;;4938988;29;20547;-81
2023/08/22 05:01:42;;;;;;;23.83;11.48;;;23.60;64.60;;;;;;4956542;29;20422;-82
2023/08/22 05:04:08;;;;;;;21.13;11.10;;;23.30;64.50;;;;;;4956529;29;20090;-81
2023/08/22 05:06:34;;;;;;;18.10;9.93;;;23.10;64.80;;;;;;4939198;29;20123;-82
2023/08/22 05:09:00;;;;;;;27.40;11.70;;;22.60;65.40;;;;;;4939032;29;20029;-83
2023/08/22 05:11:25;;;;;;;31.50;12.05;;;22.20;66.80;;;;;;4933937;29;20023;-80
2023/08/22 05:13:51;;;;;;;19.77;9.75;;;22.40;67.80;;;;;;4956178;29;20388;-81
2023/08/22 05:16:17;;;;;;;22.25;10.10;;;23.10;65.20;;;;;;4956745;29;20095;-81
2023/08/22 05:18:43;;;;;;;22.92;10.38;;;23.60;63.40;;;;;;4946683;29;20032;-82
2023/08/22 05:21:08;;;;;;;17.75;10.02;;;23.70;63.30;;;;;;4948297;29;20034;-81
2023/08/22 05:23:35;;;;;;;30.25;11.10;;;24.40;62.40;;;;;;4962890;29;20436;-80
2023/08/22 05:26:01;;;;;;;17.35;10.70;;;24.90;60.50;;;;;;4956258;29;20027;-81
2023/08/22 05:28:27;;;;;;;29.80;12.85;;;25.00;60.10;;;;;;4954329;29;20118;-82
2023/08/22 05:30:53;;;;;;;21.67;11.07;;;24.80;59.80;;;;;;4928778;29;20078;-82
2023/08/22 05:33:18;;;;;;;20.40;10.88;;;24.90;60.00;;;;;;4952929;29;20042;-80
2023/08/22 05:35:44;;;;;;;16.73;10.68;;;25.70;58.80;;;;;;4955601;29;20065;-81
2023/08/22 05:38:10;;;;;;;17.98;10.32;;;26.20;56.50;;;;;;4922769;29;20042;-81
2023/08/22 05:40:36;;;;;;;15.88;11.02;;;25.60;56.60;;;;;;4955567;29;20421;-81
2023/08/22 05:43:02;;;;;;;20.27;10.75;;;24.80;58.30;;;;;;4955156;29;20032;-82
2023/08/22 05:45:28;;;;;;;19.90;11.95;;;24.20;60.40;;;;;;4955305;29;20023;-83
2023/08/22 05:47:54;;;;;;;17.95;10.57;;;24.50;60.50;;;;;;4955238;29;20042;-82
2023/08/22 05:50:21;;;;;;;15.95;11.45;;;24.70;59.30;;;;;;4950825;29;20236;-82
2023/08/22 05:52:47;;;;;;;20.00;11.07;;;24.30;59.20;;;;;;4947253;29;20501;-82
2023/08/22 05:55:13;;;;;;;19.02;10.85;;;23.90;60.50;;;;;;4938557;29;20047;-80
2023/08/22 05:57:39;;;;;;;20.45;11.30;;;23.30;61.30;;;;;;4928990;29;20102;-82
2023/08/22 06:00:08;;;;;;;23.65;12.20;;;22.60;63.20;;;;;;4951282;29;20525;-81
2023/08/22 06:02:34;;;;;;;19.20;10.98;;;22.00;64.70;;;;;;4943572;29;20015;-91
2023/08/22 06:05:00;;;;;;;23.98;11.27;;;21.50;66.10;;;;;;4930660;29;20036;-83
2023/08/22 06:07:26;;;;;;;24.60;11.77;;;21.30;67.70;;;;;;4961360;29;20033;-87
2023/08/22 06:09:52;;;;;;;18.08;11.23;;;21.20;68.60;;;;;;4960672;29;20106;-86
2023/08/22 06:12:18;;;;;;;21.08;12.05;;;21.20;68.40;;;;;;4968621;29;20027;-85
2023/08/22 06:14:44;;;;;;;23.27;12.33;;;21.30;68.40;;;;;;4944135;29;20027;-88
2023/08/22 06:17:10;;;;;;;24.90;13.88;;;21.50;68.60;;;;;;4948740;29;20282;-88
2023/08/22 06:19:36;;;;;;;28.77;14.13;;;21.70;68.10;;;;;;4969738;29;20007;-88
2023/08/22 06:22:02;;;;;;;26.52;12.25;;;21.90;67.80;;;;;;4924188;29;20125;-91
2023/08/22 06:24:28;;;;;;;23.05;12.25;;;21.80;66.80;;;;;;4950663;29;20055;-89
2023/08/22 06:26:54;;;;;;;21.35;11.82;;;21.80;67.60;;;;;;4961081;29;20079;-87
2023/08/22 06:29:19;;;;;;;20.40;12.07;;;21.70;67.50;;;;;;4957266;29;20106;-90
2023/08/22 06:31:45;;;;;;;27.80;12.25;;;21.60;67.40;;;;;;4937884;29;20099;-88
2023/08/22 06:34:11;;;;;;;21.55;11.30;;;21.40;68.40;;;;;;4956177;29;20066;-88
2023/08/22 06:36:38;;;;;;;22.25;12.13;;;21.50;68.50;;;;;;4939851;29;20051;-89
2023/08/22 06:39:05;;;;;;;24.47;13.40;;;21.50;67.60;;;;;;4940071;29;20039;-90
2023/08/22 06:41:31;;;;;;;17.45;12.55;;;21.60;68.10;;;;;;4939646;29;21280;-92
2023/08/22 06:43:56;;;;;;;23.98;12.38;;;21.80;68.30;;;;;;4956516;29;20058;-89
2023/08/22 06:46:22;;;;;;;18.73;13.00;;;22.20;67.30;;;;;;4957292;29;20114;-89
2023/08/22 06:48:49;;;;;;;17.23;10.40;;;22.50;66.00;;;;;;4961047;29;20027;-90
2023/08/22 06:51:15;;;;;;;19.87;10.93;;;23.00;62.70;;;;;;4944238;29;20023;-88
2023/08/22 06:53:41;;;;;;;22.10;11.70;;;23.40;62.20;;;;;;4964255;29;20054;-90
2023/08/22 06:56:06;;;;;;;21.17;11.02;;;23.90;62.50;;;;;;4975143;29;20090;-87
2023/08/22 06:58:32;;;;;;;22.35;11.55;;;24.80;60.90;;;;;;4939839;29;20035;-88
2023/08/22 07:00:58;;;;;;;20.90;11.32;;;26.90;58.60;;;;;;4955559;29;20485;-89
2023/08/22 07:03:24;;;;;;;21.02;10.88;;;31.50;53.80;;;;;;4955180;29;20027;-89
2023/08/22 07:05:54;;;;;;;14.90;10.27;;;;;;;;;;4938430;29;20060;-90
2023/08/22 07:08:20;;;;;;;21.23;12.52;;;32.10;48.90;;;;;;4938328;29;20404;-90
2023/08/22 07:10:46;;;;;;;18.58;10.52;;;33.30;45.00;;;;;;4941216;29;20042;-87
2023/08/22 07:13:13;;;;;;;22.57;10.77;;;33.50;43.70;;;;;;4940273;29;20023;-89
2023/08/22 07:15:39;;;;;;;14.40;9.98;;;33.20;43.60;;;;;;4940388;29;20035;-88
2023/08/22 07:18:05;;;;;;;22.07;9.53;;;32.80;43.10;;;;;;4956043;29;20034;-87
2023/08/22 07:20:31;;;;;;;19.93;10.13;;;32.30;43.70;;;;;;4944206;29;20028;-87
2023/08/22 07:22:56;;;;;;;12.88;9.15;;;31.50;44.50;;;;;;4955475;29;20069;-91
2023/08/22 07:25:22;;;;;;;13.68;9.45;;;30.50;45.90;;;;;;4957294;29;20023;-89
2023/08/22 07:27:48;;;;;;;17.15;9.02;;;30.00;46.80;;;;;;4958651;29;20047;-88
2023/08/22 07:30:14;;;;;;;18.55;10.77;;;29.70;46.40;;;;;;4959866;29;20050;-89
2023/08/22 07:32:41;;;;;;;17.10;9.77;;;29.60;46.70;;;;;;4966391;29;20035;-90
2023/08/22 07:35:07;;;;;;;14.98;8.88;;;29.50;47.70;;;;;;4976573;29;20027;-91
2023/08/22 07:37:34;;;;;;;14.77;9.75;;;29.20;46.90;;;;;;4974386;29;20023;-90
2023/08/22 07:40:00;;;;;;;16.88;9.63;;;28.70;47.50;;;;;;4970659;29;20035;-89
2023/08/22 07:42:25;;;;;;;14.50;9.80;;;28.70;48.40;;;;;;4935749;28;20035;-90
2023/08/22 07:44:51;;;;;;;19.65;9.27;;;29.10;47.60;;;;;;4968025;29;20031;-89
2023/08/22 07:47:17;;;;;;;17.00;9.27;;;29.00;47.50;;;;;;4960633;29;20035;-88
2023/08/22 07:49:43;;;;;;;16.75;9.23;;;28.80;47.40;;;;;;4967415;29;20027;-88
2023/08/22 07:52:09;;;;;;;10.38;7.50;;;28.70;48.00;;;;;;4969190;29;20087;-87
2023/08/22 07:54:34;;;;;;;14.38;8.82;;;28.80;47.20;;;;;;4965354;29;20027;-89
2023/08/22 07:57:00;;;;;;;16.70;8.40;;;28.90;47.00;;;;;;4954727;29;20023;-89
2023/08/22 07:59:26;;;;;;;22.00;9.68;;;;;;;;;;4973859;29;20087;-87
2023/08/22 08:01:53;;;;;;;19.70;9.05;;;;;;;;;;4963263;29;20027;-87
2023/08/22 08:04:19;;;;;;;17.13;9.05;;;;;;;;;;4962002;29;20031;-89
2023/08/22 08:06:47;;;;;;;16.70;9.03;;;;;;;;;;4961304;29;20039;-90
2023/08/22 08:09:14;;;;;;;17.40;8.13;;;28.30;47.50;;;;;;4972548;29;20003;-88
2023/08/22 08:11:40;;;;;;;24.80;9.00;;;26.00;52.60;;;;;;4968645;29;20015;-89
2023/08/22 08:14:07;;;;;;;18.92;9.05;;;25.90;52.40;;;;;;4959274;29;20138;-88
2023/08/22 08:16:32;;;;;;;19.48;8.57;;;26.10;52.20;;;;;;4958506;29;20494;-89
2023/08/22 08:18:58;;;;;;;16.75;6.70;;;26.40;51.80;;;;;;4959299;29;20043;-90
2023/08/22 08:21:24;;;;;;;20.23;8.07;;;26.60;50.30;;;;;;4959862;29;20063;-88
2023/08/22 08:23:50;;;;;;;13.25;6.30;;;27.10;50.20;;;;;;4959139;29;20034;-89
2023/08/22 08:26:16;;;;;;;16.13;5.63;;;27.50;48.80;;;;;;4960066;29;20473;-90
2023/08/22 08:28:42;;;;;;;13.85;6.03;;;27.80;48.60;;;;;;4964483;29;20038;-90
2023/08/22 08:31:09;;;;;;;11.13;5.00;;;28.00;47.70;;;;;;4962548;29;20141;-90
2023/08/22 08:33:34;;;;;;;6.80;5.28;;;28.00;46.80;;;;;;4978940;29;20098;-89
2023/08/22 08:36:00;;;;;;;9.68;4.20;;;27.70;47.00;;;;;;4960410;29;20075;-91
2023/08/22 08:38:26;;;;;;;17.65;5.88;;;27.40;47.70;;;;;;4949606;29;20575;-89
2023/08/22 08:40:54;;;;;;;11.77;5.03;;;26.90;48.40;;;;;;4944081;29;20023;-91
2023/08/22 08:43:22;;;;;;;11.52;4.43;;;26.40;48.90;;;;;;4930208;29;20028;-88
2023/08/22 08:45:49;;;;;;;6.97;4.70;;;26.00;49.80;;;;;;4960921;29;20086;-87
2023/08/22 08:48:17;;;;;;;;;;;25.60;50.10;;;;;;4962053;29;20067;-89
2023/08/22 08:50:44;;;;;;;15.48;6.15;;;;;;;;;;4961366;29;20331;-89
2023/08/22 08:53:11;;;;;;;14.32;5.57;;;25.10;50.40;;;;;;4947065;29;20043;-89
2023/08/22 08:55:40;;;;;;;13.27;5.30;;;24.30;53.60;;;;;;4959997;28;20035;-90
2023/08/22 08:58:07;;;;;;;16.95;7.78;;;23.90;53.60;;;;;;4946565;29;20194;-88
2023/08/22 09:00:33;;;;;;;;;;;23.60;54.60;;;;;;4946462;29;20396;-88
2023/08/22 09:02:59;;;;;;;10.27;5.75;;;23.40;54.10;;;;;;4948388;29;20045;-89
2023/08/22 09:05:28;;;;;;;15.07;6.60;;;23.10;55.00;;;;;;4937600;29;20038;-89
2023/08/22 09:07:53;;;;;;;10.90;5.03;;;23.00;55.80;;;;;;4961236;29;20453;-88
2023/08/22 09:10:36;;;;;;;15.13;6.80;;;23.00;55.50;;;;;;4959739;29;20023;-90
2023/08/22 09:13:04;;;;;;;12.65;5.57;;;22.90;56.10;;;;;;4930985;29;20023;-89
2023/08/22 09:15:30;;;;;;;13.30;5.85;;;22.80;56.20;;;;;;4944300;29;20031;-91
2023/08/22 09:17:57;;;;;;;11.43;5.40;;;22.80;56.60;;;;;;4941614;29;20042;-91
2023/08/22 09:20:24;;;;;;;16.70;5.90;;;22.50;56.90;;;;;;4943703;29;20042;-91
2023/08/22 09:22:49;;;;;;;13.93;5.97;;;22.40;57.70;;;;;;4960076;29;20046;-89
2023/08/22 09:25:16;;;;;;;15.00;6.03;;;22.20;58.10;;;;;;4959257;29;20468;-90
2023/08/22 09:27:48;;;;;;;13.82;5.60;;;22.10;59.50;;;;;;4946398;29;20135;-89
2023/08/22 09:30:15;;;;;;;15.85;6.55;;;22.10;59.40;;;;;;4941436;29;20114;-90
2023/08/22 09:32:41;;;;;;;15.73;7.70;;;22.10;60.00;;;;;;4942556;29;20382;-89
2023/08/22 09:35:08;;;;;;;21.60;7.78;;;22.10;60.20;;;;;;4944410;29;20133;-90
2023/08/22 09:37:40;;;;;;;15.77;6.90;;;22.10;60.40;;;;;;4943030;29;20078;-89
2023/08/22 09:40:10;;;;;;;11.32;6.35;;;22.00;59.80;;;;;;4960760;29;20038;-88
2023/08/22 09:42:40;;;;;;;16.10;6.80;;;22.00;60.00;;;;;;4958055;29;20032;-89
2023/08/22 09:45:07;;;;;;;20.05;8.50;;;22.00;61.00;;;;;;4941953;29;20079;-90
2023/08/22 09:47:39;;;;;;;22.35;7.25;;;22.00;61.00;;;;;;4942604;29;20118;-90
2023/08/22 09:50:06;;;;;;;17.05;7.93;;;22.00;61.40;;;;;;4959885;29;20031;-90
2023/08/22 09:52:36;;;;;;;18.63;6.90;;;22.00;61.50;;;;;;4945196;29;20034;-90
2023/08/22 09:55:02;;;;;;;11.25;6.45;;;22.00;62.20;;;;;;4941767;29;20024;-90
2023/08/22 09:57:30;;;;;;;16.35;7.28;;;22.00;62.90;;;;;;4956074;29;20024;-89
2023/08/22 09:59:59;;;;;;;12.85;6.78;;;22.10;63.20;;;;;;4945970;29;20016;-88
2023/08/22 10:02:27;;;;;;;12.77;6.45;;;22.10;62.00;;;;;;4974273;29;20031;-89
2023/08/22 10:04:54;;;;;;;17.00;6.35;;;22.10;62.10;;;;;;4954565;29;20023;-91
2023/08/22 10:07:20;;;;;;;16.23;6.40;;;22.00;62.00;;;;;;4958139;29;20057;-90
2023/08/22 10:09:46;;;;;;;17.05;6.88;;;22.00;61.40;;;;;;4950300;29;20031;-90
2023/08/22 10:12:16;;;;;;;20.88;8.15;;;22.00;61.70;;;;;;4966064;29;20394;-91
2023/08/22 10:14:43;;;;;;;22.30;11.52;;;22.00;63.90;;;;;;4954612;29;20023;-89
2023/08/22 10:17:15;;;;;;;25.60;11.60;;;21.80;67.20;;;;;;4955537;29;20042;-89
2023/08/22 10:19:43;;;;;;;24.98;12.55;;;21.70;69.10;;;;;;4960679;29;20042;-90
2023/08/22 10:22:14;;;;;;;25.00;13.20;;;21.60;70.90;;;;;;4942701;29;20436;-90
2023/08/22 10:24:41;;;;;;;26.73;12.55;;;21.60;71.90;;;;;;4958157;29;20038;-93
2023/08/22 10:27:16;;;;;;;26.92;12.48;;;21.50;72.70;;;;;;4941872;29;20401;-91
2023/08/22 10:29:45;;;;;;;18.27;12.93;;;21.50;73.30;;;;;;4960790;29;20031;-89
2023/08/22 10:32:11;;;;;;;19.70;11.35;;;21.40;74.00;;;;;;4919191;29;20040;-89
2023/08/22 10:34:42;;;;;;;27.55;12.77;;;21.40;74.40;;;;;;4919699;29;20084;-90
2023/08/22 10:37:25;;;;;;;26.83;14.40;;;21.30;75.00;;;;;;4917767;29;20051;-90
2023/08/22 10:39:51;;;;;;;17.38;12.15;;;21.40;75.40;;;;;;4918690;29;20639;-91
2023/08/22 10:42:23;;;;;;;20.60;12.63;;;21.20;75.50;;;;;;4912159;29;20037;-89
2023/08/22 10:44:50;;;;;;;20.85;12.82;;;21.10;76.00;;;;;;4884740;29;20025;-88
2023/08/22 10:47:16;;;;;;;20.27;13.63;;;20.80;76.70;;;;;;4920157;29;20048;-92
2023/08/22 10:49:42;;;;;;;20.70;12.77;;;20.80;77.30;;;;;;4932522;29;20179;-88
2023/08/22 10:52:13;;;;;;;25.95;13.73;;;20.80;77.80;;;;;;4939614;29;20052;-90
2023/08/22 10:55:01;;;;;;;32.03;14.25;;;20.90;77.20;;;;;;4938878;29;20012;-90
2023/08/22 10:57:28;;;;;;;20.55;12.07;;;21.00;76.50;;;;;;4914576;29;20065;-91
2023/08/22 11:00:13;;;;;;;24.80;13.30;;;21.10;76.10;;;;;;4911729;29;20481;-88
2023/08/22 11:02:42;;;;;;;18.98;11.43;;;21.10;76.20;;;;;;4915381;29;20564;-89
2023/08/22 11:05:11;;;;;;;23.33;11.65;;;21.10;75.70;;;;;;4963939;29;20055;-89
2023/08/22 11:07:41;;;;;;;16.30;11.27;;;20.90;76.30;;;;;;4959980;29;20074;-89
2023/08/22 11:10:15;;;;;;;19.63;11.45;;;20.80;76.80;;;;;;4939734;29;20023;-88
2023/08/22 11:12:43;;;;;;;18.98;11.82;;;20.70;77.10;;;;;;4958620;29;20019;-90
2023/08/22 11:15:10;;;;;;;20.92;10.80;;;20.80;77.70;;;;;;4927058;29;20035;-90
2023/08/22 11:17:40;;;;;;;18.50;10.68;;;20.80;77.70;;;;;;4940086;29;20027;-90
2023/08/22 11:20:17;;;;;;;19.20;12.48;;;21.00;77.80;;;;;;4957579;29;20035;-89
2023/08/22 11:22:46;;;;;;;20.55;11.32;;;21.20;77.10;;;;;;4938956;29;20054;-90
2023/08/22 11:25:13;;;;;;;21.30;13.77;;;21.40;75.90;;;;;;4957050;29;20489;-88
2023/08/22 11:27:40;;;;;;;24.58;12.80;;;21.50;75.60;;;;;;4940325;29;20043;-89
2023/08/22 11:30:07;;;;;;;24.70;12.30;;;21.80;75.00;;;;;;4928932;29;20031;-90
2023/08/22 11:32:41;;;;;;;19.10;10.50;;;21.90;74.10;;;;;;4962424;29;20031;-90
2023/08/22 11:35:08;;;;;;;17.90;10.00;;;21.90;73.50;;;;;;4940033;29;20043;-89
2023/08/22 11:37:36;;;;;;;23.10;10.55;;;22.00;72.60;;;;;;4958788;29;20034;-90
2023/08/22 11:40:08;;;;;;;17.13;10.40;;;22.10;72.40;;;;;;4958344;29;20028;-90
2023/08/22 11:42:36;;;;;;;19.45;10.60;;;22.10;72.20;;;;;;4963275;29;20047;-91
2023/08/22 11:45:02;;;;;;;24.98;10.40;;;22.20;70.70;;;;;;4964803;29;20035;-91
2023/08/22 11:47:53;;;;;;;17.20;9.70;;;22.20;70.90;;;;;;4957868;29;20078;-90
2023/08/22 11:50:27;;;;;;;13.32;8.82;;;22.20;70.40;;;;;;4962075;29;20036;-88
2023/08/22 11:53:06;;;;;;;16.13;8.68;;;22.20;69.60;;;;;;4970900;29;20043;-90
2023/08/22 11:55:33;;;;;;;20.33;9.70;;;22.20;69.60;;;;;;4958652;29;20022;-91
2023/08/22 11:58:00;;;;;;;19.57;10.97;;;22.30;69.80;;;;;;4942068;29;20078;-90
2023/08/22 12:00:27;;;;;;;12.70;6.85;;;22.40;66.50;;;;;;4943194;29;20019;-90
2023/08/22 12:02:55;;;;;;;10.52;6.30;;;22.20;64.80;;;;;;4959249;29;20035;-89
2023/08/22 12:05:32;;;;;;;12.10;5.72;;;22.20;65.20;;;;;;4947589;29;20101;-89
2023/08/22 12:07:59;;;;;;;9.23;5.85;;;22.30;65.20;;;;;;4960521;29;20050;-89
2023/08/22 12:10:26;;;;;;;;;;;22.30;64.40;;;;;;4960385;29;20090;-89
2023/08/22 12:12:52;;;;;;;8.50;6.45;;;22.10;64.90;;;;;;4954595;29;19913;-90
2023/08/22 12:15:18;;;;;;;15.23;7.35;;;22.00;65.20;;;;;;4970365;29;20045;-89
2023/08/22 12:17:44;;;;;;;14.45;9.35;;;22.00;65.80;;;;;;4958427;29;20035;-91
2023/08/22 12:20:10;;;;;;;11.15;6.90;;;22.20;66.10;;;;;;4957837;29;20022;-89
2023/08/22 12:22:36;;;;;;;10.15;5.88;;;22.30;65.20;;;;;;4970380;29;20091;-89
2023/08/22 12:25:01;;;;;;;17.42;8.35;;;22.40;64.30;;;;;;4949643;29;20030;-89
2023/08/22 12:27:27;;;;;;;14.55;6.55;;;22.30;64.90;;;;;;4968023;29;20035;-90
2023/08/22 12:29:53;;;;;;;20.55;7.05;;;22.30;64.60;;;;;;4953515;29;20027;-89
2023/08/22 12:32:19;;;;;;;22.63;7.28;;;22.20;64.10;;;;;;4955621;29;20031;-88
2023/08/22 12:34:45;;;;;;;14.00;4.95;;;21.90;65.00;;;;;;4963373;28;20133;-90